Time;durP1;ratioP1;P1;durP2;ratioP2;P2;SDS_P1;SDS_P2;PMS_P1;PMS_P2;Temp;Humidity;BMP_temperature;BMP_pressure;BME280_temperature;BME280_humidity;BME280_pressure;Samples;Min_cycle;Max_cycle;Signal;HPM_P1;HPM_P2
2021/03/16 00:01:31;;;;;;;7.05;1.75;;;;;;;4.96;62.86;99187.34;5092399;28;20058;-64
2021/03/16 00:04:05;;;;;;;5.18;1.65;;;;;;;4.92;62.98;99193.03;5090949;28;20454;-63
2021/03/16 00:06:51;;;;;;;3.33;1.65;;;;;;;4.96;63.12;99197.84;5092236;28;20145;-64
2021/03/16 00:09:17;;;;;;;6.07;1.83;;;;;;;5.05;63.21;99196.13;5091871;28;20070;-63
2021/03/16 00:11:44;;;;;;;6.50;1.90;;;;;;;5.03;62.89;99205.13;5092109;28;20051;-64
2021/03/16 00:14:11;;;;;;;4.80;1.92;;;;;;;4.92;62.67;99204.34;5091893;28;20040;-63
2021/03/16 00:16:37;;;;;;;4.72;1.95;;;;;;;4.98;63.03;99205.56;5090740;28;20512;-63
2021/03/16 00:19:05;;;;;;;2.65;1.52;;;;;;;4.98;62.88;99210.81;5091946;28;20090;-64
2021/03/16 00:21:32;;;;;;;6.57;2.00;;;;;;;4.99;63.01;99217.69;5093464;28;20127;-63
2021/03/16 00:23:59;;;;;;;7.15;1.60;;;;;;;4.98;62.60;99213.44;5096103;28;20047;-64
2021/03/16 00:26:25;;;;;;;5.50;1.85;;;;;;;4.98;62.64;99218.69;5095934;28;20048;-64
2021/03/16 00:28:52;;;;;;;8.23;1.90;;;;;;;5.01;62.68;99215.75;5096097;28;20059;-64
2021/03/16 00:31:19;;;;;;;11.15;1.90;;;;;;;4.99;62.66;99212.47;5095851;28;20051;-63
2021/03/16 00:33:46;;;;;;;10.73;1.80;;;;;;;5.00;62.24;99218.50;5096285;28;20126;-63
2021/03/16 00:36:14;;;;;;;7.28;1.80;;;;;;;5.03;62.15;99224.28;5095950;28;20076;-64
2021/03/16 00:38:40;;;;;;;6.45;1.88;;;;;;;5.06;62.16;99231.00;5095791;28;20040;-63
2021/03/16 00:41:07;;;;;;;7.63;2.35;;;;;;;5.08;62.07;99226.47;5095766;28;20482;-64
2021/03/16 00:43:34;;;;;;;2.50;1.45;;;;;;;5.05;61.77;99232.00;5095836;28;20044;-63
2021/03/16 00:46:01;;;;;;;10.43;1.75;;;;;;;4.99;61.72;99232.59;5095654;28;20044;-63
2021/03/16 00:48:28;;;;;;;8.13;1.77;;;;;;;5.04;61.69;99230.34;5095469;28;20036;-63
2021/03/16 00:50:57;;;;;;;5.00;2.83;;;;;;;5.03;61.26;99234.78;5095636;28;20040;-63
2021/03/16 00:53:25;;;;;;;6.25;2.00;;;;;;;5.04;61.60;99233.78;5094331;28;20477;-63
2021/03/16 00:55:58;;;;;;;;;;;;;;;5.07;61.26;99238.75;5094860;28;20502;-63
2021/03/16 00:58:29;;;;;;;5.90;1.65;;;;;;;5.04;61.22;99235.59;5094292;28;19920;-64
2021/03/16 01:00:57;;;;;;;4.60;1.35;;;;;;;5.03;61.34;99236.56;5095391;28;20051;-63
2021/03/16 01:03:24;;;;;;;7.03;1.75;;;;;;;4.99;61.04;99241.28;5094188;28;20483;-63
2021/03/16 01:05:52;;;;;;;7.97;1.50;;;;;;;5.01;60.71;99235.88;5095286;28;20054;-63
2021/03/16 01:08:20;;;;;;;5.93;1.60;;;;;;;4.98;60.55;99244.88;5095050;28;20513;-63
2021/03/16 01:10:49;;;;;;;4.70;1.73;;;;;;;5.04;60.64;99238.22;5095169;28;20044;-63
2021/03/16 01:13:16;;;;;;;7.25;1.83;;;;;;;5.03;60.39;99240.00;5095203;28;20040;-63
2021/03/16 01:15:43;;;;;;;9.77;2.50;;;;;;;5.01;60.01;99246.34;5094955;28;20043;-63
2021/03/16 01:18:10;;;;;;;6.97;1.50;;;;;;;5.06;60.08;99249.34;5094938;28;20044;-63
2021/03/16 01:20:37;;;;;;;7.43;1.80;;;;;;;5.14;59.70;99241.59;5094938;28;20040;-63
2021/03/16 01:23:04;;;;;;;7.75;2.17;;;;;;;5.13;59.64;99247.81;5095008;28;20486;-63
2021/03/16 01:25:32;;;;;;;5.28;1.85;;;;;;;5.12;59.68;99238.31;5094742;28;20059;-63
2021/03/16 01:27:59;;;;;;;4.47;1.52;;;;;;;5.17;59.47;99244.75;5094638;28;20051;-63
2021/03/16 01:30:27;;;;;;;7.05;1.90;;;;;;;5.18;59.28;99237.69;5094931;28;20044;-63
2021/03/16 01:32:54;;;;;;;4.43;1.42;;;;;;;5.22;59.31;99245.16;5093424;28;20047;-63
2021/03/16 01:35:22;;;;;;;9.48;1.70;;;;;;;5.21;58.88;99242.66;5094514;28;20047;-63
2021/03/16 01:37:53;;;;;;;9.98;2.70;;;;;;;5.21;58.88;99238.22;5094576;28;20051;-63
2021/03/16 01:40:30;;;;;;;3.30;1.45;;;;;;;5.19;58.65;99242.00;5094776;28;20471;-63
2021/03/16 01:43:10;;;;;;;7.22;1.52;;;;;;;5.16;58.05;99237.84;5094871;28;20448;-63
2021/03/16 01:45:38;;;;;;;5.68;1.70;;;;;;;5.18;58.44;99237.69;5094589;28;20046;-63
2021/03/16 01:48:06;;;;;;;10.18;1.45;;;;;;;5.20;58.33;99233.16;5094389;28;20036;-63
2021/03/16 01:50:34;;;;;;;5.38;1.60;;;;;;;5.22;58.38;99245.16;5094547;28;20044;-63
2021/03/16 01:53:02;;;;;;;7.45;1.60;;;;;;;5.24;58.28;99241.56;5094723;28;20115;-62
2021/03/16 01:55:30;;;;;;;7.25;1.25;;;;;;;5.25;57.82;99236.16;5094357;28;20047;-62
2021/03/16 01:57:58;;;;;;;4.88;1.40;;;;;;;5.17;58.06;99236.88;5093332;28;20074;-62
2021/03/16 02:00:45;;;;;;;4.65;1.30;;;;;;;5.14;58.05;99233.72;5094508;28;20051;-62
2021/03/16 02:03:31;;;;;;;7.78;1.42;;;;;;;5.05;58.12;99235.44;5094840;28;20059;-63
2021/03/16 02:06:28;;;;;;;5.93;1.30;;;;;;;5.03;58.24;99232.16;5094656;28;20524;-63
2021/03/16 02:09:22;;;;;;;5.90;1.27;;;;;;;5.02;58.26;99235.75;5094219;28;20389;-63
2021/03/16 02:12:13;;;;;;;7.15;1.75;;;;;;;4.95;58.46;99237.31;5094545;28;20047;-62
2021/03/16 02:15:05;;;;;;;7.68;1.98;;;;;;;4.95;58.71;99237.31;5094223;28;20086;-63
2021/03/16 02:17:55;;;;;;;4.90;1.40;;;;;;;4.93;58.46;99242.66;5094130;28;20051;-63
2021/03/16 02:21:02;;;;;;;4.90;1.55;;;;;;;4.89;58.63;99243.94;5094173;28;20157;-63
2021/03/16 02:24:17;;;;;;;3.95;1.23;;;;;;;4.87;58.89;99242.44;5094101;28;20070;-63
2021/03/16 02:27:10;;;;;;;8.82;1.73;;;;;;;4.90;59.11;99256.06;5093970;28;20043;-63
2021/03/16 02:30:01;;;;;;;6.97;1.67;;;;;;;4.98;59.04;99257.97;5094346;28;20051;-63
2021/03/16 02:32:48;;;;;;;4.93;1.10;;;;;;;5.00;58.89;99263.88;5093844;28;20056;-63
2021/03/16 02:35:35;;;;;;;5.45;1.40;;;;;;;4.98;59.05;99276.31;5093839;28;20059;-62
2021/03/16 02:38:26;;;;;;;7.25;1.85;;;;;;;4.95;59.18;99273.97;5093937;28;20055;-63
2021/03/16 02:41:16;;;;;;;7.82;2.17;;;;;;;4.78;60.12;99283.44;5093914;28;20528;-63
2021/03/16 02:44:01;;;;;;;8.02;1.73;;;;;;;4.70;61.05;99278.91;5093424;28;20129;-63
2021/03/16 02:46:50;;;;;;;7.50;1.73;;;;;;;4.78;61.54;99282.59;5093457;28;20129;-63
2021/03/16 02:49:43;;;;;;;5.05;1.50;;;;;;;4.84;61.78;99287.25;5093657;28;20047;-63
2021/03/16 02:52:29;;;;;;;10.57;1.70;;;;;;;4.85;61.85;99288.91;5093610;28;20058;-63
2021/03/16 02:55:15;;;;;;;5.88;1.65;;;;;;;4.86;61.90;99295.81;5093443;28;20182;-63
2021/03/16 02:58:03;;;;;;;7.65;1.73;;;;;;;4.87;61.81;99303.53;5093324;28;20058;-63
2021/03/16 03:00:49;;;;;;;6.32;1.60;;;;;;;4.86;61.86;99304.50;5093004;28;20062;-63
2021/03/16 03:03:39;;;;;;;8.23;2.08;;;;;;;4.91;61.74;99304.06;5093416;28;20058;-63
2021/03/16 03:06:26;;;;;;;8.88;1.55;;;;;;;4.86;62.11;99311.53;5093176;28;20051;-63
2021/03/16 03:09:13;;;;;;;10.40;1.73;;;;;;;4.87;61.93;99308.75;5093118;28;20059;-64
2021/03/16 03:12:00;;;;;;;7.90;1.80;;;;;;;4.87;61.94;99313.19;5092900;28;20054;-62
2021/03/16 03:14:45;;;;;;;5.72;2.03;;;;;;;4.85;62.06;99317.72;5092684;28;20159;-62
2021/03/16 03:17:31;;;;;;;8.80;1.77;;;;;;;4.85;62.36;99313.31;5092682;28;20063;-62
2021/03/16 03:20:17;;;;;;;5.13;1.55;;;;;;;4.79;62.27;99311.25;5093047;28;20063;-62
2021/03/16 03:23:11;;;;;;;8.13;1.77;;;;;;;4.83;62.49;99309.19;5095540;28;20071;-62
2021/03/16 03:26:02;;;;;;;6.13;1.60;;;;;;;4.82;62.59;99311.00;5106327;28;20051;-62
2021/03/16 03:28:48;;;;;;;5.75;1.73;;;;;;;4.90;62.67;99318.97;5104677;28;20047;-62
2021/03/16 03:31:34;;;;;;;8.80;1.92;;;;;;;4.94;62.55;99315.09;5096456;28;20438;-62
2021/03/16 03:34:20;;;;;;;6.32;1.48;;;;;;;5.00;62.44;99321.53;5098454;28;20089;-61
2021/03/16 03:37:08;;;;;;;10.32;2.47;;;;;;;5.03;62.36;99323.03;5095976;28;20406;-62
2021/03/16 03:39:55;;;;;;;4.63;1.88;;;;;;;5.06;62.16;99323.59;5093103;28;20046;-63
2021/03/16 03:42:41;;;;;;;8.68;1.92;;;;;;;5.01;62.64;99328.41;5093444;28;20528;-63
2021/03/16 03:45:28;;;;;;;6.53;1.83;;;;;;;4.97;62.52;99335.72;5093145;28;20063;-62
2021/03/16 03:48:14;;;;;;;5.90;1.95;;;;;;;4.88;62.64;99331.34;5092544;28;20132;-62
2021/03/16 03:51:02;;;;;;;4.45;1.30;;;;;;;4.85;62.36;99334.25;5092620;28;20050;-63
2021/03/16 03:53:50;;;;;;;7.88;1.48;;;;;;;4.87;62.25;99334.94;5092759;28;20051;-63
2021/03/16 03:56:37;;;;;;;6.10;1.50;;;;;;;4.86;62.37;99335.09;5091858;28;20132;-63
2021/03/16 03:59:24;;;;;;;7.45;1.70;;;;;;;4.84;62.49;99332.63;5092255;28;20531;-63
2021/03/16 04:02:10;;;;;;;10.68;2.10;;;;;;;4.83;62.42;99338.00;5092375;28;20051;-63
2021/03/16 04:04:57;;;;;;;6.10;1.70;;;;;;;4.78;62.46;99342.84;5092027;28;20051;-63
2021/03/16 04:07:44;;;;;;;7.90;1.67;;;;;;;4.67;62.72;99354.31;5092075;28;20536;-63
2021/03/16 04:10:31;;;;;;;8.73;2.00;;;;;;;4.64;62.92;99354.59;5092486;28;20059;-62
2021/03/16 04:13:17;;;;;;;8.70;1.85;;;;;;;4.63;63.05;99358.19;5092226;28;20055;-64
2021/03/16 04:16:02;;;;;;;8.38;1.80;;;;;;;4.68;63.04;99362.00;5092447;28;20061;-63
2021/03/16 04:18:49;;;;;;;6.47;2.13;;;;;;;4.71;62.69;99363.53;5092417;28;20051;-63
2021/03/16 04:21:35;;;;;;;7.18;2.13;;;;;;;4.70;62.02;99356.66;5092217;28;20562;-63
2021/03/16 04:24:21;;;;;;;7.57;1.65;;;;;;;4.72;61.56;99367.81;5092177;28;20208;-63
2021/03/16 04:27:09;;;;;;;8.45;2.47;;;;;;;4.68;60.89;99384.75;5092149;28;20125;-63
2021/03/16 04:29:54;;;;;;;4.85;1.33;;;;;;;4.67;60.66;99376.09;5092189;28;20426;-63
2021/03/16 04:32:39;;;;;;;8.68;2.08;;;;;;;4.64;60.72;99380.78;5092265;28;20066;-62
2021/03/16 04:35:25;;;;;;;9.35;2.17;;;;;;;4.57;61.20;99371.81;5091961;28;20143;-64
2021/03/16 04:38:10;;;;;;;7.95;1.90;;;;;;;4.63;61.38;99371.28;5091915;28;20051;-63
2021/03/16 04:40:55;;;;;;;12.05;2.30;;;;;;;4.63;61.35;99379.13;5091938;28;20540;-63
2021/03/16 04:43:42;;;;;;;5.93;1.60;;;;;;;4.58;61.55;99376.09;5092097;28;20059;-63
2021/03/16 04:46:27;;;;;;;7.55;2.13;;;;;;;4.68;61.67;99372.50;5091749;28;20051;-63
2021/03/16 04:49:13;;;;;;;8.35;1.77;;;;;;;4.69;61.75;99368.06;5091963;28;20047;-63
2021/03/16 04:51:58;;;;;;;6.75;2.00;;;;;;;4.70;61.78;99370.56;5092385;28;20059;-63
2021/03/16 04:54:44;;;;;;;5.68;1.65;;;;;;;4.64;62.08;99372.91;5092305;28;20529;-63
2021/03/16 04:57:29;;;;;;;12.20;2.13;;;;;;;4.65;62.32;99378.03;5091667;28;20435;-63
2021/03/16 05:00:17;;;;;;;6.13;1.88;;;;;;;4.62;62.67;99388.78;5091955;28;20680;-63
2021/03/16 05:03:02;;;;;;;6.28;2.13;;;;;;;4.61;63.18;99391.53;5092122;28;20078;-63
2021/03/16 05:05:48;;;;;;;7.53;2.05;;;;;;;4.58;63.68;99400.50;5091514;28;20120;-63
2021/03/16 05:08:33;;;;;;;8.20;2.58;;;;;;;4.54;63.89;99401.75;5094588;28;20401;-63
2021/03/16 05:11:18;;;;;;;9.02;2.30;;;;;;;4.47;64.40;99398.84;5095468;28;20174;-63
2021/03/16 05:14:03;;;;;;;9.02;2.42;;;;;;;4.50;64.63;99400.38;5095418;28;20066;-63
2021/03/16 05:16:50;;;;;;;6.45;2.53;;;;;;;4.51;64.72;99401.19;5095342;28;20109;-64
2021/03/16 05:19:36;;;;;;;8.52;2.67;;;;;;;4.43;64.95;99412.34;5095181;28;20121;-64
2021/03/16 05:22:21;;;;;;;7.80;2.15;;;;;;;4.42;65.24;99413.31;5095397;28;20106;-64
2021/03/16 05:25:07;;;;;;;8.82;2.40;;;;;;;4.44;65.45;99416.63;5094814;28;20051;-64
2021/03/16 05:27:52;;;;;;;6.43;2.30;;;;;;;4.41;65.54;99417.75;5095156;28;20140;-64
2021/03/16 05:30:38;;;;;;;9.00;2.60;;;;;;;4.44;65.17;99425.28;5094989;28;20540;-64
2021/03/16 05:33:24;;;;;;;6.35;1.70;;;;;;;4.46;65.42;99426.00;5095082;28;20109;-64
2021/03/16 05:36:09;;;;;;;6.30;1.85;;;;;;;4.41;65.48;99425.59;5094710;28;20055;-64
2021/03/16 05:38:55;;;;;;;9.50;2.28;;;;;;;4.45;65.54;99434.81;5094650;28;20051;-64
2021/03/16 05:41:41;;;;;;;7.28;2.30;;;;;;;4.39;65.83;99435.38;5094674;28;20063;-64
2021/03/16 05:44:26;;;;;;;8.57;2.60;;;;;;;4.42;65.69;99442.94;5094716;28;20424;-63
2021/03/16 05:47:13;;;;;;;10.00;2.97;;;;;;;4.42;65.92;99447.34;5094559;28;20054;-64
2021/03/16 05:50:02;;;;;;;8.38;2.67;;;;;;;4.37;66.06;99439.91;5094879;28;20063;-63
2021/03/16 05:52:48;;;;;;;9.63;2.80;;;;;;;4.39;66.30;99451.06;5094810;28;20051;-63
2021/03/16 05:55:33;;;;;;;11.02;2.70;;;;;;;4.38;66.35;99438.94;5094630;28;20059;-63
2021/03/16 05:58:23;;;;;;;5.10;2.25;;;;;;;4.43;66.19;99441.97;5094453;28;20051;-63
2021/03/16 06:01:10;;;;;;;8.30;2.25;;;;;;;4.46;66.09;99448.75;5094553;28;20582;-63
2021/03/16 06:03:56;;;;;;;10.68;2.97;;;;;;;4.41;66.37;99441.31;5094463;28;20133;-63
2021/03/16 06:06:42;;;;;;;9.45;3.05;;;;;;;4.43;66.44;99446.38;5094687;28;20059;-63
2021/03/16 06:09:28;;;;;;;8.55;2.38;;;;;;;4.47;66.44;99448.59;5094104;28;20047;-63
2021/03/16 06:12:13;;;;;;;10.60;2.83;;;;;;;4.54;66.60;99448.06;5094559;28;20059;-64
2021/03/16 06:15:13;;;;;;;6.95;3.22;;;;;;;4.58;66.44;99449.44;5093851;28;20129;-64
2021/03/16 06:17:58;;;;;;;5.38;2.53;;;;;;;4.61;66.48;99454.38;5094147;28;20043;-63
2021/03/16 06:20:44;;;;;;;6.90;3.10;;;;;;;4.55;66.48;99455.75;5093520;28;20148;-64
2021/03/16 06:23:32;;;;;;;8.13;2.75;;;;;;;4.57;66.50;99468.69;5094262;28;20608;-64
2021/03/16 06:26:18;;;;;;;15.38;3.25;;;;;;;4.61;66.83;99475.31;5093911;28;20074;-64
2021/03/16 06:29:05;;;;;;;9.57;2.83;;;;;;;4.59;66.71;99472.84;5093562;28;20043;-64
2021/03/16 06:31:51;;;;;;;9.30;2.63;;;;;;;4.65;66.57;99476.69;5093893;28;20521;-64
2021/03/16 06:34:36;;;;;;;11.82;3.90;;;;;;;4.68;66.74;99472.00;5093520;28;20182;-64
2021/03/16 06:37:21;;;;;;;11.60;3.17;;;;;;;4.70;67.07;99469.28;5094732;28;20067;-64
2021/03/16 06:40:11;;;;;;;12.90;3.47;;;;;;;4.66;66.95;99479.19;5093353;28;20157;-64
2021/03/16 06:43:04;;;;;;;6.95;2.58;;;;;;;4.68;67.34;99487.72;5093701;28;20050;-64
2021/03/16 06:45:51;;;;;;;9.43;2.90;;;;;;;4.77;67.13;99496.53;5093582;28;20581;-64
2021/03/16 06:48:38;;;;;;;11.02;3.08;;;;;;;4.81;67.16;99491.84;5093723;28;20555;-64
2021/03/16 06:51:26;;;;;;;10.23;3.40;;;;;;;4.87;66.96;99493.94;5094068;28;20567;-63
2021/03/16 06:54:13;;;;;;;7.72;3.05;;;;;;;4.90;66.79;99504.16;5093348;28;20410;-62
2021/03/16 06:57:01;;;;;;;13.70;3.25;;;;;;;4.94;66.46;99503.72;5093425;28;20117;-62
2021/03/16 06:59:46;;;;;;;12.25;2.90;;;;;;;4.95;66.32;99508.00;5093535;28;20184;-63
2021/03/16 07:02:31;;;;;;;11.82;2.92;;;;;;;4.97;66.39;99519.16;5107111;28;20082;-64
2021/03/16 07:05:26;;;;;;;11.40;2.38;;;;;;;5.02;66.02;99520.53;5110304;28;20062;-63
2021/03/16 07:08:14;;;;;;;10.85;2.65;;;;;;;5.07;66.03;99524.41;5093209;28;20082;-63
2021/03/16 07:11:00;;;;;;;6.88;2.90;;;;;;;5.06;65.89;99521.91;5093378;28;20059;-63
2021/03/16 07:13:48;;;;;;;11.35;2.95;;;;;;;5.08;65.67;99528.66;5093189;28;20514;-63
2021/03/16 07:16:35;;;;;;;9.55;2.95;;;;;;;5.22;65.51;99525.63;5093246;28;20055;-63
2021/03/16 07:19:23;;;;;;;11.07;2.53;;;;;;;5.29;65.22;99533.75;5092823;28;20054;-63
2021/03/16 07:22:16;;;;;;;12.15;2.95;;;;;;;5.40;64.86;99538.00;5093221;28;20430;-63
2021/03/16 07:25:05;;;;;;;8.05;2.67;;;;;;;5.43;64.37;99538.56;5092666;28;20058;-62
2021/03/16 07:27:52;;;;;;;5.57;2.28;;;;;;;5.46;64.36;99543.50;5092712;28;20134;-63
2021/03/16 07:30:51;;;;;;;10.93;2.35;;;;;;;5.59;64.30;99542.34;5091882;28;20062;-63
2021/03/16 07:33:37;;;;;;;11.98;2.70;;;;;;;5.69;64.09;99541.38;5092671;28;20687;-63
2021/03/16 07:36:23;;;;;;;12.95;2.95;;;;;;;5.76;63.85;99551.31;5092443;28;20054;-63
2021/03/16 07:39:12;;;;;;;7.72;2.20;;;;;;;5.80;63.54;99544.81;5092507;28;20046;-62
2021/03/16 07:41:58;;;;;;;7.85;2.78;;;;;;;5.82;63.31;99555.97;5092427;28;20051;-63
2021/03/16 07:44:44;;;;;;;6.13;2.45;;;;;;;5.95;63.29;99551.25;5092422;28;20078;-63
2021/03/16 07:47:35;;;;;;;9.80;2.58;;;;;;;6.04;62.59;99558.25;5092600;28;20133;-63
2021/03/16 07:50:27;;;;;;;8.73;2.55;;;;;;;6.01;61.42;99562.97;5092529;28;20059;-64
2021/03/16 07:53:23;;;;;;;7.13;1.85;;;;;;;6.01;60.82;99565.59;5092431;28;20081;-63
2021/03/16 07:56:12;;;;;;;6.95;1.90;;;;;;;6.03;60.29;99567.09;5092617;28;20076;-63
2021/03/16 07:58:57;;;;;;;7.35;2.15;;;;;;;6.07;60.16;99570.25;5091913;28;20047;-63
2021/03/16 08:01:47;;;;;;;9.35;2.08;;;;;;;6.09;59.39;99577.03;5092350;28;20520;-63
2021/03/16 08:04:36;;;;;;;5.63;1.98;;;;;;;6.07;59.30;99575.50;5092117;28;20058;-63
2021/03/16 08:07:23;;;;;;;4.97;1.85;;;;;;;6.07;58.61;99578.13;5092267;28;20055;-63
2021/03/16 08:10:10;;;;;;;4.07;1.73;;;;;;;6.23;58.44;99582.75;5092225;28;20051;-63
2021/03/16 08:12:59;;;;;;;9.23;2.17;;;;;;;6.33;57.86;99581.75;5092380;28;20101;-63
2021/03/16 08:15:46;;;;;;;8.15;2.10;;;;;;;6.39;57.44;99581.16;5092044;28;20094;-63
2021/03/16 08:18:34;;;;;;;5.78;1.67;;;;;;;6.47;57.24;99580.41;5092369;28;20047;-63
2021/03/16 08:21:20;;;;;;;10.23;2.33;;;;;;;6.51;56.79;99579.16;5092166;28;20532;-63
2021/03/16 08:24:08;;;;;;;9.65;2.10;;;;;;;6.56;56.21;99589.22;5092305;28;20109;-63
2021/03/16 08:26:54;;;;;;;4.45;2.22;;;;;;;6.63;56.17;99591.09;5092163;28;20059;-62
2021/03/16 08:29:43;;;;;;;4.68;1.80;;;;;;;6.65;55.64;99591.81;5091657;28;20047;-62
2021/03/16 08:32:29;;;;;;;7.45;2.05;;;;;;;6.84;55.43;99585.56;5092248;28;20101;-63
2021/03/16 08:35:16;;;;;;;3.67;1.80;;;;;;;6.85;54.89;99589.84;5092107;28;20567;-63
2021/03/16 08:38:02;;;;;;;4.75;1.77;;;;;;;6.92;55.04;99583.00;5091965;28;20059;-62
2021/03/16 08:40:50;;;;;;;7.85;2.40;;;;;;;6.86;54.21;99586.25;5091950;28;20152;-62
2021/03/16 08:43:35;;;;;;;5.43;1.90;;;;;;;6.99;53.53;99590.31;5094791;28;20105;-63
2021/03/16 08:46:29;;;;;;;4.60;1.92;;;;;;;6.88;51.12;99588.72;5095889;28;20406;-62
2021/03/16 08:49:16;;;;;;;6.95;1.73;;;;;;;6.76;52.43;99590.75;5095572;28;20051;-63
2021/03/16 08:52:02;;;;;;;5.97;2.10;;;;;;;6.70;52.32;99601.88;5096014;28;20055;-62
2021/03/16 08:54:48;;;;;;;8.75;2.28;;;;;;;6.56;51.75;99602.34;5095597;28;20158;-62
2021/03/16 08:57:34;;;;;;;5.20;1.85;;;;;;;6.53;52.60;99611.38;5095371;28;20472;-63
2021/03/16 09:00:24;;;;;;;3.90;1.98;;;;;;;6.62;52.82;99605.22;5095368;28;20054;-62
2021/03/16 09:03:10;;;;;;;3.95;1.67;;;;;;;6.66;52.04;99608.38;5095474;28;20055;-62
2021/03/16 09:05:55;;;;;;;10.15;2.47;;;;;;;6.81;52.43;99611.31;5095159;28;20079;-61
2021/03/16 09:08:42;;;;;;;3.38;1.45;;;;;;;6.84;51.90;99614.47;5094848;28;20047;-62
2021/03/16 09:11:31;;;;;;;5.45;2.17;;;;;;;6.86;51.84;99616.97;5095496;28;20058;-62
2021/03/16 09:14:17;;;;;;;6.97;2.13;;;;;;;6.92;52.06;99624.25;5095349;28;20571;-63
2021/03/16 09:17:03;;;;;;;8.93;2.42;;;;;;;7.00;51.98;99628.75;5095306;28;20128;-64
2021/03/16 09:19:49;;;;;;;3.47;1.80;;;;;;;7.04;52.01;99625.69;5095459;28;20188;-62
2021/03/16 09:22:35;;;;;;;3.22;1.60;;;;;;;7.02;51.74;99626.78;5095051;28;20115;-63
2021/03/16 09:25:25;;;;;;;5.53;2.20;;;;;;;7.11;51.45;99625.91;5094822;28;20070;-63
2021/03/16 09:28:14;;;;;;;4.57;2.08;;;;;;;7.20;50.74;99625.00;5094641;28;20484;-63
2021/03/16 09:30:59;;;;;;;8.68;2.08;;;;;;;7.15;50.43;99617.59;5094594;28;20460;-63
2021/03/16 09:33:45;;;;;;;6.97;2.00;;;;;;;7.18;50.27;99617.28;5095038;28;20051;-63
2021/03/16 09:36:30;;;;;;;17.70;9.25;;;;;;;7.36;50.10;99619.06;5094611;28;20073;-63
2021/03/16 09:39:23;;;;;;;7.07;2.53;;;;;;;7.49;49.82;99623.94;5093585;28;20480;-63
2021/03/16 09:41:59;;;;;;;7.20;2.17;;;;;;;7.53;49.26;99605.06;5094739;28;20068;-63
2021/03/16 09:44:32;;;;;;;10.35;7.00;;;;;;;7.68;48.52;99615.88;5094250;28;20048;-63
2021/03/16 09:46:59;;;;;;;5.30;1.95;;;;;;;7.65;48.19;99614.34;5094480;28;20071;-63
2021/03/16 09:49:30;;;;;;;6.30;2.25;;;;;;;7.68;47.60;99618.50;5094562;28;20051;-62
2021/03/16 09:52:01;;;;;;;4.35;1.48;;;;;;;7.66;47.37;99618.63;5093189;28;20120;-63
2021/03/16 09:54:35;;;;;;;6.90;2.03;;;;;;;7.66;47.00;99613.38;5091815;28;20066;-64
2021/03/16 09:57:06;;;;;;;4.32;1.90;;;;;;;7.79;47.42;99610.31;5093080;28;20052;-63
2021/03/16 09:59:38;;;;;;;6.50;1.98;;;;;;;7.85;46.73;99616.78;5094321;28;20569;-63
2021/03/16 10:02:05;;;;;;;3.33;1.40;;;;;;;7.91;46.98;99614.34;5094334;28;20043;-63
2021/03/16 10:04:46;;;;;;;8.10;2.95;;;;;;;8.12;46.66;99607.88;5094476;28;20082;-63
2021/03/16 10:07:24;;;;;;;3.80;2.00;;;;;;;8.08;46.46;99607.38;5094626;28;20044;-63
2021/03/16 10:09:52;;;;;;;4.47;1.60;;;;;;;8.06;46.05;99611.97;5094016;28;20044;-63
2021/03/16 10:12:19;;;;;;;4.68;1.77;;;;;;;8.02;46.37;99612.44;5094496;28;20090;-63
2021/03/16 10:14:50;;;;;;;5.68;1.50;;;;;;;8.13;46.35;99609.56;5093899;28;20092;-63
2021/03/16 10:17:32;;;;;;;4.63;1.60;;;;;;;8.08;46.15;99607.38;5094150;28;20098;-63
2021/03/16 10:20:00;;;;;;;4.18;1.58;;;;;;;8.16;46.26;99609.22;5094161;28;20040;-63
2021/03/16 10:22:29;;;;;;;6.40;1.80;;;;;;;8.31;46.21;99607.66;5093915;28;20047;-63
2021/03/16 10:24:57;;;;;;;5.72;1.75;;;;;;;8.35;45.67;99602.88;5093547;28;20050;-64
2021/03/16 10:27:29;;;;;;;5.03;2.00;;;;;;;8.53;46.52;99611.56;5093507;28;20043;-64
2021/03/16 10:29:57;;;;;;;4.00;1.80;;;;;;;8.59;45.27;99612.72;5093787;28;20063;-64
2021/03/16 10:32:27;;;;;;;4.57;1.60;;;;;;;8.60;45.11;99612.56;5093576;28;20043;-65
2021/03/16 10:34:54;;;;;;;7.75;1.67;;;;;;;8.52;45.03;99609.91;5093260;28;20101;-64
2021/03/16 10:37:23;;;;;;;6.47;2.17;;;;;;;8.66;45.64;99611.09;5091917;28;20486;-64
2021/03/16 10:39:50;;;;;;;5.82;1.70;;;;;;;8.65;45.18;99612.91;5093626;28;20048;-64
2021/03/16 10:42:18;;;;;;;4.60;1.83;;;;;;;8.59;45.30;99610.09;5099278;28;20048;-64
2021/03/16 10:44:45;;;;;;;2.38;1.40;;;;;;;8.40;45.05;99611.16;5109826;28;20058;-64
2021/03/16 10:47:13;;;;;;;3.17;1.65;;;;;;;8.37;45.74;99599.16;5104400;28;20044;-64
2021/03/16 10:49:40;;;;;;;7.30;2.58;;;;;;;8.47;45.86;99599.00;5092880;28;20047;-64
2021/03/16 10:52:07;;;;;;;5.80;1.90;;;;;;;8.54;45.87;99589.50;5093052;28;20047;-64
2021/03/16 10:54:35;;;;;;;4.60;1.63;;;;;;;8.64;46.08;99594.63;5092872;28;20124;-64
2021/03/16 10:57:03;;;;;;;6.00;1.40;;;;;;;8.83;45.60;99593.50;5092891;28;20106;-64
2021/03/16 10:59:30;;;;;;;4.97;1.83;;;;;;;8.99;45.81;99590.91;5092832;28;20445;-65
2021/03/16 11:01:56;;;;;;;3.50;1.60;;;;;;;9.04;44.90;99590.41;5093116;28;20490;-65
2021/03/16 11:04:24;;;;;;;6.60;1.55;;;;;;;8.92;44.47;99588.09;5092892;28;20510;-65
2021/03/16 11:06:51;;;;;;;6.57;1.65;;;;;;;8.98;44.71;99588.41;5092788;28;20040;-65
2021/03/16 11:09:18;;;;;;;4.22;1.55;;;;;;;9.08;44.78;99584.66;5092544;28;20040;-65
2021/03/16 11:11:44;;;;;;;2.53;1.27;;;;;;;9.06;44.92;99583.16;5092755;28;20036;-65
2021/03/16 11:14:12;;;;;;;12.88;4.45;;;;;;;9.12;45.17;99580.69;5092595;28;20044;-65
2021/03/16 11:16:38;;;;;;;7.95;3.78;;;;;;;9.12;45.41;99572.78;5092804;28;20058;-64
2021/03/16 11:19:05;;;;;;;10.45;3.40;;;;;;;9.07;45.47;99579.53;5092568;28;20367;-65
2021/03/16 11:21:33;;;;;;;7.15;2.17;;;;;;;9.12;45.64;99582.50;5092695;28;20040;-65
2021/03/16 11:24:00;;;;;;;5.55;2.00;;;;;;;9.06;45.67;99575.22;5092637;28;20040;-65
2021/03/16 11:26:26;;;;;;;6.50;2.65;;;;;;;8.95;45.81;99588.75;5092363;28;20048;-64
2021/03/16 11:28:53;;;;;;;7.38;2.05;;;;;;;8.64;46.30;99581.44;5092063;28;20032;-62
2021/03/16 11:31:21;;;;;;;8.10;3.47;;;;;;;8.29;46.79;99582.47;5092337;28;20051;-63
2021/03/16 11:34:11;;;;;;;7.38;2.35;;;;;;;8.12;47.44;99573.63;5092453;28;20410;-65
2021/03/16 11:36:57;;;;;;;12.38;4.10;;;;;;;8.18;48.19;99570.38;5092436;28;20122;-64
2021/03/16 11:39:45;;;;;;;11.05;4.78;;;;;;;8.06;48.19;99577.75;5092181;28;20050;-64
2021/03/16 11:42:30;;;;;;;11.50;5.82;;;;;;;7.97;48.51;99578.69;5092378;28;20055;-64
2021/03/16 11:45:16;;;;;;;10.75;4.05;;;;;;;7.77;49.22;99572.81;5092058;28;20063;-64
2021/03/16 11:48:01;;;;;;;7.63;3.17;;;;;;;7.78;49.54;99571.00;5091919;28;20054;-64
2021/03/16 11:50:47;;;;;;;13.43;6.35;;;;;;;7.98;49.61;99564.53;5091813;28;20132;-65
2021/03/16 11:53:32;;;;;;;11.57;6.78;;;;;;;8.13;49.60;99570.88;5092479;28;20556;-65
2021/03/16 11:56:18;;;;;;;17.00;8.23;;;;;;;8.19;49.79;99564.13;5092222;28;20063;-65
2021/03/16 11:59:03;;;;;;;16.83;8.38;;;;;;;8.22;49.70;99565.63;5091993;28;20055;-65
2021/03/16 12:01:49;;;;;;;16.40;8.35;;;;;;;8.22;49.73;99563.81;5092221;28;20055;-64
2021/03/16 12:04:35;;;;;;;13.00;5.80;;;;;;;8.14;49.99;99564.59;5091773;28;20524;-64
2021/03/16 12:07:20;;;;;;;9.90;4.30;;;;;;;8.20;50.09;99563.13;5091963;28;20084;-64
2021/03/16 12:10:08;;;;;;;6.28;3.58;;;;;;;8.34;50.22;99569.63;5091835;28;20054;-64
2021/03/16 12:12:53;;;;;;;6.00;3.45;;;;;;;8.53;49.86;99553.59;5092147;28;20067;-64
2021/03/16 12:15:39;;;;;;;7.40;2.60;;;;;;;8.72;49.85;99546.38;5091897;28;20517;-64
2021/03/16 12:18:24;;;;;;;6.05;2.50;;;;;;;8.80;49.39;99547.19;5095064;28;20098;-64
2021/03/16 12:21:10;;;;;;;8.73;3.17;;;;;;;8.71;49.52;99542.09;5096932;28;20050;-64
2021/03/16 12:23:55;;;;;;;7.50;4.07;;;;;;;8.34;50.47;99543.28;5096849;28;20177;-64
2021/03/16 12:26:41;;;;;;;11.30;4.63;;;;;;;8.31;50.74;99535.69;5096790;28;20567;-64
2021/03/16 12:29:26;;;;;;;8.95;3.08;;;;;;;8.07;51.78;99544.31;5096355;28;20051;-64
2021/03/16 12:32:12;;;;;;;4.30;1.83;;;;;;;7.67;52.63;99546.63;5096481;28;20051;-65
2021/03/16 12:34:58;;;;;;;4.72;2.28;;;;;;;7.33;54.13;99561.50;5096118;28;20055;-64
2021/03/16 12:37:44;;;;;;;3.97;1.80;;;;;;;7.20;54.71;99551.38;5095686;28;20189;-65
2021/03/16 12:40:29;;;;;;;2.53;2.25;;;;;;;7.22;55.86;99552.03;5096120;28;20059;-64
2021/03/16 12:43:17;;;;;;;3.95;2.00;;;;;;;7.13;56.67;99553.78;5096317;28;20138;-65
2021/03/16 12:46:02;;;;;;;3.25;2.15;;;;;;;7.31;57.25;99551.16;5095728;28;20067;-65
2021/03/16 12:48:47;;;;;;;2.90;2.35;;;;;;;7.67;56.68;99543.13;5095685;28;20047;-64